Time;durP1;ratioP1;P1;durP2;ratioP2;P2;SDS_P1;SDS_P2;PMS_P1;PMS_P2;Temp;Humidity;BMP_temperature;BMP_pressure;BME280_temperature;BME280_humidity;BME280_pressure;Samples;Min_cycle;Max_cycle;Signal;HPM_P1;HPM_P2
2021/07/04 00:01:18;;;;;;;7.85;6.70;;;;;;;22.00;61.30;100025.81;5054866;28;20104;-62
2021/07/04 00:03:45;;;;;;;8.75;6.97;;;;;;;21.94;61.32;100023.69;5041453;28;20851;-61
2021/07/04 00:06:12;;;;;;;7.88;7.07;;;;;;;21.90;61.68;100022.28;5041792;28;20045;-60
2021/07/04 00:08:38;;;;;;;10.13;6.78;;;;;;;21.87;61.79;100024.47;5052624;28;20416;-61
2021/07/04 00:11:08;;;;;;;10.13;6.95;;;;;;;21.85;61.92;100018.38;5046334;28;20515;-59
2021/07/04 00:13:37;;;;;;;7.15;6.13;;;;;;;21.84;62.15;100014.84;5044415;28;20055;-61
2021/07/04 00:16:04;;;;;;;9.80;5.45;;;;;;;21.81;60.81;100011.59;5048386;28;20049;-61
2021/07/04 00:18:33;;;;;;;5.75;5.05;;;;;;;21.82;60.20;100018.69;5048188;28;20048;-62
2021/07/04 00:21:07;;;;;;;7.25;5.90;;;;;;;21.80;60.14;100021.53;5048749;28;20063;-60
2021/07/04 00:23:34;;;;;;;8.13;5.63;;;;;;;21.79;59.90;100019.81;5044972;28;20049;-61
2021/07/04 00:26:01;;;;;;;5.78;5.18;;;;;;;21.78;60.24;100020.81;5050123;28;20053;-60
2021/07/04 00:28:27;;;;;;;6.20;5.50;;;;;;;21.75;60.26;100013.03;5039672;28;20657;-60
2021/07/04 00:30:54;;;;;;;6.50;5.70;;;;;;;21.75;60.66;100014.88;5054261;28;20049;-59
2021/07/04 00:33:21;;;;;;;6.18;5.57;;;;;;;21.72;60.54;100016.06;5051502;28;20061;-60
2021/07/04 00:35:49;;;;;;;7.60;5.35;;;;;;;21.68;60.73;100011.97;5039230;28;20424;-60
2021/07/04 00:38:15;;;;;;;6.93;5.57;;;;;;;21.66;60.88;100019.34;5046976;28;20504;-61
2021/07/04 00:40:43;;;;;;;6.70;5.63;;;;;;;21.63;61.39;100016.97;5048592;28;20095;-60
2021/07/04 00:43:10;;;;;;;6.97;6.20;;;;;;;21.61;61.51;100016.25;5041656;28;20123;-60
2021/07/04 00:45:37;;;;;;;6.90;6.18;;;;;;;21.56;62.18;100011.34;5040861;28;20091;-60
2021/07/04 00:48:04;;;;;;;6.38;5.78;;;;;;;21.54;62.57;100013.34;5046939;28;20048;-61
2021/07/04 00:50:31;;;;;;;6.63;5.88;;;;;;;21.52;62.83;100012.63;5035777;28;20064;-61
2021/07/04 00:53:00;;;;;;;8.63;6.32;;;;;;;21.50;63.14;100000.31;5057429;28;20071;-58
2021/07/04 00:55:27;;;;;;;7.03;6.28;;;;;;;21.45;63.44;100003.44;5044901;28;20500;-60
2021/07/04 00:57:53;;;;;;;9.57;6.18;;;;;;;21.42;63.75;100003.75;5041727;28;20630;-60
2021/07/04 01:00:23;;;;;;;7.78;6.30;;;;;;;21.40;64.17;99999.53;5041029;28;20061;-61
2021/07/04 01:02:49;;;;;;;10.37;7.10;;;;;;;21.36;64.51;99998.97;5047315;28;20077;-60
2021/07/04 01:05:22;;;;;;;8.98;6.88;;;;;;;21.31;64.84;100007.50;5044827;28;20073;-61
2021/07/04 01:07:50;;;;;;;8.13;7.32;;;;;;;21.26;65.71;100006.25;5039169;28;22794;-63
2021/07/04 01:10:22;;;;;;;9.75;7.13;;;;;;;21.14;66.53;100000.19;5052225;28;20103;-60
2021/07/04 01:12:51;;;;;;;9.00;7.32;;;;;;;21.10;67.26;100000.63;5033537;28;20059;-61
2021/07/04 01:15:19;;;;;;;7.88;7.07;;;;;;;21.04;68.01;100004.78;5047764;28;20076;-62
2021/07/04 01:17:47;;;;;;;8.18;7.30;;;;;;;20.97;68.67;100000.97;5045727;28;20424;-60
2021/07/04 01:20:17;;;;;;;9.75;7.07;;;;;;;20.92;69.07;99995.22;5042869;28;20053;-60
2021/07/04 01:23:07;;;;;;;9.15;7.30;;;;;;;20.88;69.56;99997.34;5056522;28;20052;-61
2021/07/04 01:25:38;;;;;;;8.32;7.43;;;;;;;20.83;70.02;99994.22;5030199;28;20049;-60
2021/07/04 01:28:05;;;;;;;10.05;8.35;;;;;;;20.84;71.00;99987.00;5045932;28;20140;-61
2021/07/04 01:30:33;;;;;;;8.93;7.95;;;;;;;20.80;71.28;99993.66;5049394;28;20053;-57
2021/07/04 01:32:59;;;;;;;8.50;7.20;;;;;;;20.75;71.81;99996.81;5051153;28;20065;-61
2021/07/04 01:35:26;;;;;;;10.82;7.32;;;;;;;20.70;72.43;99985.63;5045649;28;20511;-60
2021/07/04 01:37:53;;;;;;;8.55;7.68;;;;;;;20.65;72.96;99991.44;5046884;28;20059;-60
2021/07/04 01:40:20;;;;;;;9.52;7.57;;;;;;;20.64;72.97;99994.28;5045858;28;20091;-61
2021/07/04 01:42:47;;;;;;;9.20;7.60;;;;;;;20.61;73.39;99990.06;5046557;28;20060;-62
2021/07/04 01:45:16;;;;;;;8.43;7.53;;;;;;;20.55;73.86;99989.78;5038638;28;20051;-60
2021/07/04 01:47:45;;;;;;;10.07;8.35;;;;;;;20.50;74.08;99981.28;5048171;28;20516;-60
2021/07/04 01:50:18;;;;;;;10.15;7.57;;;;;;;20.46;74.57;99980.72;5054267;28;20120;-60
2021/07/04 01:52:45;;;;;;;8.88;7.07;;;;;;;20.41;74.53;99977.66;5052489;28;20656;-60
2021/07/04 01:55:14;;;;;;;8.82;7.63;;;;;;;20.39;75.00;99978.78;5048913;28;20128;-62
2021/07/04 01:57:40;;;;;;;9.07;7.95;;;;;;;20.35;75.00;99983.56;5042662;28;20571;-60
2021/07/04 02:00:14;;;;;;;10.15;7.82;;;;;;;20.36;75.41;99979.03;5049336;28;20121;-60
2021/07/04 02:02:42;;;;;;;8.75;7.85;;;;;;;20.32;75.48;99978.47;5051639;28;20128;-59
2021/07/04 02:05:10;;;;;;;8.73;7.07;;;;;;;20.30;75.60;99985.84;5057449;28;20079;-60
2021/07/04 02:07:37;;;;;;;9.45;7.30;;;;;;;20.29;75.80;99987.69;5052597;28;20534;-61
2021/07/04 02:10:07;;;;;;;9.88;7.72;;;;;;;20.29;75.78;99987.69;5047051;28;20055;-60
2021/07/04 02:12:33;;;;;;;8.95;7.95;;;;;;;20.29;75.73;99984.16;5035293;28;20045;-60
2021/07/04 02:15:00;;;;;;;10.25;7.40;;;;;;;20.26;76.30;99982.59;5044310;28;20056;-60
2021/07/04 02:17:26;;;;;;;8.57;7.68;;;;;;;20.24;76.25;99975.66;5046426;28;20052;-62
2021/07/04 02:19:53;;;;;;;8.77;7.88;;;;;;;20.23;76.22;99987.41;5047013;28;20504;-61
2021/07/04 02:22:20;;;;;;;9.68;7.70;;;;;;;20.22;76.40;99985.72;5048424;28;20055;-62
2021/07/04 02:24:46;;;;;;;9.77;8.10;;;;;;;20.19;76.39;99983.31;5048507;28;20771;-59
2021/07/04 02:27:13;;;;;;;8.70;7.80;;;;;;;20.17;76.85;99980.75;5051005;28;20464;-59
2021/07/04 02:29:39;;;;;;;9.38;7.57;;;;;;;20.14;76.90;99978.38;5044451;28;20056;-61
2021/07/04 02:32:07;;;;;;;10.60;7.80;;;;;;;20.12;77.07;99974.97;5050104;28;20080;-60
2021/07/04 02:34:34;;;;;;;8.60;7.70;;;;;;;20.12;77.05;99982.19;5049649;28;20045;-61
2021/07/04 02:37:00;;;;;;;11.10;7.70;;;;;;;20.09;77.23;99987.84;5052265;28;20063;-61
2021/07/04 02:39:27;;;;;;;8.40;7.45;;;;;;;20.10;77.37;99990.41;5046890;28;20048;-61
2021/07/04 02:41:53;;;;;;;8.50;6.95;;;;;;;20.11;77.38;99991.25;5050530;28;20492;-59
2021/07/04 02:44:20;;;;;;;8.63;7.63;;;;;;;20.10;77.52;99997.63;5047432;28;20057;-60
2021/07/04 02:46:47;;;;;;;8.43;7.50;;;;;;;20.08;77.33;99996.91;5049494;28;20057;-60
2021/07/04 02:49:13;;;;;;;11.55;7.38;;;;;;;20.07;77.19;99996.06;5049911;28;20668;-59
2021/07/04 02:51:40;;;;;;;8.05;7.25;;;;;;;20.10;77.64;99995.78;5047808;28;20069;-61
2021/07/04 02:54:06;;;;;;;9.05;7.60;;;;;;;20.12;77.40;99999.19;5032725;28;20067;-61
2021/07/04 02:56:49;;;;;;;8.23;7.22;;;;;;;20.09;77.30;100002.13;5025449;28;20055;-61
2021/07/04 02:59:16;;;;;;;7.78;6.97;;;;;;;20.10;77.10;99992.25;5019852;28;20092;-60
2021/07/04 03:01:42;;;;;;;7.78;6.97;;;;;;;20.11;77.24;99996.63;5040275;28;20057;-60
2021/07/04 03:04:09;;;;;;;8.98;8.02;;;;;;;20.10;77.30;100003.84;5030192;28;20472;-61
2021/07/04 03:06:35;;;;;;;9.38;7.57;;;;;;;20.10;77.00;99998.47;5030057;28;20056;-61
2021/07/04 03:09:02;;;;;;;8.85;7.10;;;;;;;20.08;77.04;99997.75;5033538;28;20053;-62
2021/07/04 03:11:29;;;;;;;11.25;7.30;;;;;;;20.05;77.14;99992.66;5028536;28;20778;-62
2021/07/04 03:13:55;;;;;;;9.20;7.50;;;;;;;20.05;77.13;99999.88;5024805;28;20061;-61
2021/07/04 03:16:22;;;;;;;8.95;7.43;;;;;;;20.01;77.20;100004.66;5020374;28;20045;-62
2021/07/04 03:18:48;;;;;;;7.90;7.10;;;;;;;19.98;77.61;100001.44;5029839;28;20412;-62
2021/07/04 03:21:15;;;;;;;8.85;7.55;;;;;;;19.93;77.92;100000.03;5031923;28;20057;-59
2021/07/04 03:23:41;;;;;;;7.55;6.65;;;;;;;19.92;78.34;99998.31;5028599;28;20060;-62
2021/07/04 03:26:08;;;;;;;7.57;6.80;;;;;;;19.93;77.94;99999.16;5020249;28;20121;-62
2021/07/04 03:28:34;;;;;;;8.68;7.30;;;;;;;19.93;78.14;99997.34;5031686;28;20540;-60
2021/07/04 03:31:01;;;;;;;8.98;7.18;;;;;;;19.95;78.24;99997.19;5018761;28;20064;-60
2021/07/04 03:33:29;;;;;;;8.70;7.25;;;;;;;19.95;78.16;99995.34;5015133;28;20052;-60
2021/07/04 03:35:55;;;;;;;9.68;7.32;;;;;;;19.92;78.24;99990.25;5026779;28;20057;-60
2021/07/04 03:38:22;;;;;;;8.52;7.35;;;;;;;19.92;78.20;99995.63;5020166;28;20061;-60
2021/07/04 03:40:48;;;;;;;8.73;7.38;;;;;;;19.91;78.29;99993.09;5033562;28;20405;-61
2021/07/04 03:43:15;;;;;;;8.80;7.88;;;;;;;19.90;78.08;99992.22;5026393;28;20061;-60
2021/07/04 03:45:41;;;;;;;8.25;6.90;;;;;;;19.92;78.21;99998.31;5037713;28;20049;-61
2021/07/04 03:48:08;;;;;;;10.80;7.68;;;;;;;19.91;78.22;99996.63;5023277;28;20662;-61
2021/07/04 03:50:34;;;;;;;8.35;7.13;;;;;;;19.89;78.41;100003.97;5020488;28;20065;-61
2021/07/04 03:53:02;;;;;;;10.25;7.80;;;;;;;19.86;78.31;99993.50;5048604;28;20067;-61
2021/07/04 03:55:30;;;;;;;8.88;7.45;;;;;;;19.87;78.14;99995.19;5045138;28;20049;-60
2021/07/04 03:57:56;;;;;;;9.38;7.82;;;;;;;19.86;78.30;100000.72;5051475;28;20088;-61
2021/07/04 04:00:23;;;;;;;8.35;6.93;;;;;;;19.89;78.25;100005.81;5059020;28;20497;-61
2021/07/04 04:02:49;;;;;;;7.43;6.68;;;;;;;19.88;78.39;100002.28;5048683;28;20070;-59
2021/07/04 04:05:16;;;;;;;9.77;7.28;;;;;;;19.91;78.06;100002.00;5052523;28;20057;-63
2021/07/04 04:07:43;;;;;;;9.20;7.70;;;;;;;19.97;78.26;99997.91;5046050;28;20055;-60
2021/07/04 04:10:11;;;;;;;8.77;7.32;;;;;;;20.01;78.29;100001.13;5044289;28;20051;-61
2021/07/04 04:12:38;;;;;;;10.48;8.13;;;;;;;20.04;77.84;99992.78;5042129;28;20045;-63
2021/07/04 04:15:07;;;;;;;8.60;7.30;;;;;;;20.05;77.74;99997.19;5034319;28;20053;-61
2021/07/04 04:17:34;;;;;;;8.43;7.15;;;;;;;20.06;77.79;99993.50;5041861;28;20061;-62
2021/07/04 04:20:01;;;;;;;8.25;7.18;;;;;;;20.06;77.76;99998.88;5049820;28;20410;-62
2021/07/04 04:22:27;;;;;;;9.27;7.75;;;;;;;20.05;77.92;99999.88;5047401;28;20056;-62
2021/07/04 04:24:54;;;;;;;9.02;7.32;;;;;;;20.03;78.05;100001.84;5045880;28;20060;-62
2021/07/04 04:27:20;;;;;;;8.82;7.72;;;;;;;19.99;77.78;100006.66;5045505;28;20472;-62
2021/07/04 04:29:47;;;;;;;8.52;7.63;;;;;;;19.95;77.90;100008.78;5047933;28;20045;-63
2021/07/04 04:32:13;;;;;;;8.98;7.18;;;;;;;19.93;78.31;100002.72;5047793;28;20056;-62
2021/07/04 04:34:40;;;;;;;9.57;7.20;;;;;;;19.92;78.60;99995.63;5044537;28;20049;-61
2021/07/04 04:37:07;;;;;;;9.00;7.43;;;;;;;19.92;78.98;100003.69;5049227;28;20045;-63
2021/07/04 04:39:34;;;;;;;12.23;8.70;;;;;;;19.94;78.68;100000.88;5043442;28;20447;-61
2021/07/04 04:42:01;;;;;;;10.73;7.78;;;;;;;19.91;78.33;99993.94;5047823;28;20060;-61
2021/07/04 04:44:37;;;;;;;8.18;7.28;;;;;;;19.91;78.67;99991.25;5045124;28;20057;-61
2021/07/04 04:47:05;;;;;;;9.80;7.93;;;;;;;19.91;79.17;99996.63;5045175;28;20045;-61
2021/07/04 04:49:32;;;;;;;9.20;7.90;;;;;;;19.94;78.84;100000.88;5034877;28;20630;-62
2021/07/04 04:51:59;;;;;;;9.88;8.02;;;;;;;19.95;78.65;99995.34;5046172;28;20128;-61
2021/07/04 04:54:26;;;;;;;10.85;7.45;;;;;;;19.95;78.83;100003.41;5047175;28;20055;-62
2021/07/04 04:56:52;;;;;;;9.00;7.47;;;;;;;19.99;78.91;100001.28;5049055;28;20045;-64
2021/07/04 04:59:18;;;;;;;8.70;7.55;;;;;;;20.02;79.10;100003.69;5048876;28;20049;-62
2021/07/04 05:01:45;;;;;;;8.93;7.68;;;;;;;20.07;78.99;100000.56;5054161;28;20049;-61
2021/07/04 05:04:11;;;;;;;11.10;7.85;;;;;;;20.12;78.36;100003.69;5044652;28;20059;-61
2021/07/04 05:06:38;;;;;;;11.57;7.90;;;;;;;20.14;78.53;100001.72;5051066;28;20044;-61
2021/07/04 05:09:04;;;;;;;11.10;8.50;;;;;;;20.17;77.98;100004.09;5045555;28;20631;-61
2021/07/04 05:11:31;;;;;;;9.30;7.82;;;;;;;20.15;78.94;100000.69;5050963;28;20049;-62
2021/07/04 05:13:58;;;;;;;11.27;8.77;;;;;;;20.14;78.47;99999.03;5035462;28;20057;-62
2021/07/04 05:16:24;;;;;;;11.65;8.45;;;;;;;20.12;78.64;99995.63;5044711;28;20059;-62
2021/07/04 05:18:51;;;;;;;10.27;8.20;;;;;;;20.12;78.54;100009.06;5047691;28;20052;-62
2021/07/04 05:21:18;;;;;;;10.77;8.38;;;;;;;20.10;78.65;99997.63;5043230;28;20049;-62
2021/07/04 05:23:46;;;;;;;10.63;8.35;;;;;;;20.12;78.47;100004.56;5051309;28;20060;-61
2021/07/04 05:26:12;;;;;;;11.10;7.93;;;;;;;20.16;78.42;99999.72;5047073;28;20059;-62
2021/07/04 05:28:40;;;;;;;9.77;8.50;;;;;;;20.23;78.29;99993.63;5044260;28;20510;-62
2021/07/04 05:31:07;;;;;;;9.25;7.90;;;;;;;20.28;78.14;99986.00;5047027;28;20508;-62
2021/07/04 05:33:33;;;;;;;9.55;8.02;;;;;;;20.35;77.62;99983.56;5050167;28;20453;-61
2021/07/04 05:36:00;;;;;;;10.52;8.20;;;;;;;20.41;78.13;99983.03;5052550;28;20059;-61
2021/07/04 05:38:32;;;;;;;10.75;9.07;;;;;;;20.42;77.47;99981.19;5062236;28;20108;-61
2021/07/04 05:41:01;;;;;;;10.45;7.53;;;;;;;20.45;77.16;99983.59;5062349;28;20120;-62
2021/07/04 05:43:28;;;;;;;12.60;8.55;;;;;;;20.47;76.38;99971.66;5051246;28;20056;-63
2021/07/04 05:45:57;;;;;;;10.45;8.38;;;;;;;20.48;76.94;99976.06;5043178;28;20051;-60
2021/07/04 05:48:25;;;;;;;10.02;8.40;;;;;;;20.52;77.08;99966.72;5045800;28;20850;-59
2021/07/04 05:50:52;;;;;;;11.23;7.90;;;;;;;20.58;76.95;99968.84;5035765;28;20045;-61
2021/07/04 05:53:18;;;;;;;9.40;7.93;;;;;;;20.64;76.40;99965.53;5059594;28;20151;-61
2021/07/04 05:55:45;;;;;;;9.70;7.60;;;;;;;20.69;76.46;99970.50;5059022;28;20067;-61
2021/07/04 05:58:11;;;;;;;10.15;8.13;;;;;;;20.74;76.28;99967.38;5052886;28;20051;-59
2021/07/04 06:00:39;;;;;;;9.85;8.30;;;;;;;20.79;76.28;99960.53;5047114;28;20052;-60
2021/07/04 06:03:06;;;;;;;9.10;7.70;;;;;;;20.88;76.38;99969.56;5049060;28;20041;-61
2021/07/04 06:05:32;;;;;;;11.15;8.75;;;;;;;21.00;75.97;99963.00;5039384;28;20051;-62
2021/07/04 06:07:59;;;;;;;11.35;8.35;;;;;;;21.10;74.91;99960.25;5052857;28;20052;-62
2021/07/04 06:10:25;;;;;;;13.00;8.20;;;;;;;21.17;73.56;99964.03;5054008;28;20704;-62
2021/07/04 06:12:52;;;;;;;12.63;8.68;;;;;;;21.21;72.97;99955.56;5050041;28;20052;-61
2021/07/04 06:15:18;;;;;;;12.30;8.02;;;;;;;21.27;72.76;99952.25;5031843;28;20085;-60
2021/07/04 06:17:45;;;;;;;9.93;7.75;;;;;;;21.40;72.24;99961.81;5047686;28;20048;-63
2021/07/04 06:20:15;;;;;;;8.73;7.82;;;;;;;21.48;72.20;99959.22;5043733;28;20049;-59
2021/07/04 06:22:42;;;;;;;10.73;7.85;;;;;;;21.54;72.06;99961.31;5046311;28;20431;-61
2021/07/04 06:25:11;;;;;;;8.75;7.82;;;;;;;21.62;71.78;99961.38;5049349;28;20072;-61
2021/07/04 06:27:41;;;;;;;10.35;8.52;;;;;;;21.65;71.47;99958.38;5040725;28;20041;-61
2021/07/04 06:30:11;;;;;;;11.15;8.50;;;;;;;21.68;71.82;99958.06;5046811;28;20045;-61
2021/07/04 06:32:38;;;;;;;8.75;7.90;;;;;;;21.76;71.50;99954.59;5043485;28;20049;-60
2021/07/04 06:35:07;;;;;;;9.50;8.02;;;;;;;21.82;71.09;99954.84;5035450;28;20056;-60
2021/07/04 06:37:34;;;;;;;9.30;8.10;;;;;;;21.89;70.39;99960.44;5045972;28;20049;-62
2021/07/04 06:40:02;;;;;;;10.40;8.00;;;;;;;21.96;70.05;99956.97;5043447;28;20132;-61
2021/07/04 06:42:28;;;;;;;13.90;8.20;;;;;;;21.98;70.26;99954.97;5044354;28;20901;-60
2021/07/04 06:44:55;;;;;;;9.85;8.60;;;;;;;21.99;70.29;99948.63;5048805;28;20064;-62
2021/07/04 06:47:21;;;;;;;10.10;8.50;;;;;;;22.05;70.34;99949.81;5045896;28;20639;-61
2021/07/04 06:49:48;;;;;;;10.23;8.02;;;;;;;22.17;70.11;99953.16;5048879;28;20088;-61
2021/07/04 06:52:15;;;;;;;9.27;8.07;;;;;;;22.55;69.58;99954.56;5050359;28;20065;-58
2021/07/04 06:54:41;;;;;;;10.48;8.48;;;;;;;22.83;67.27;99955.25;5048214;28;20059;-61
2021/07/04 06:57:26;;;;;;;9.55;7.85;;;;;;;23.03;65.90;99951.31;5043207;28;20468;-61
2021/07/04 06:59:58;;;;;;;11.85;8.15;;;;;;;23.30;64.95;99947.50;5042376;28;20057;-61
2021/07/04 07:02:26;;;;;;;10.95;8.60;;;;;;;23.47;64.90;99940.28;5049938;28;20531;-62
2021/07/04 07:04:53;;;;;;;10.07;7.75;;;;;;;23.67;64.68;99939.03;5046314;28;20823;-62
2021/07/04 07:07:20;;;;;;;9.55;7.57;;;;;;;23.67;64.18;99939.03;5052899;28;20045;-61
2021/07/04 07:09:47;;;;;;;9.38;8.00;;;;;;;23.56;64.05;99942.06;5045814;28;20128;-61
2021/07/04 07:12:14;;;;;;;8.95;8.05;;;;;;;23.48;63.68;99933.88;5047556;28;20048;-61
2021/07/04 07:14:41;;;;;;;10.07;7.43;;;;;;;23.33;63.26;99929.13;5038244;28;20505;-62
2021/07/04 07:17:08;;;;;;;9.50;7.60;;;;;;;23.26;63.48;99928.13;5045155;28;20124;-61
2021/07/04 07:19:35;;;;;;;11.50;8.60;;;;;;;23.19;64.33;99927.06;5045275;28;20059;-62
2021/07/04 07:22:02;;;;;;;9.25;8.07;;;;;;;23.44;65.16;99923.44;5042026;28;20049;-61
2021/07/04 07:24:29;;;;;;;9.48;8.02;;;;;;;24.05;64.03;99911.34;5042494;28;20077;-60
2021/07/04 07:26:55;;;;;;;9.95;7.90;;;;;;;24.57;61.49;99921.75;5049119;28;20603;-62
2021/07/04 07:29:22;;;;;;;9.82;7.65;;;;;;;25.00;60.38;99919.59;5047850;28;20053;-61
2021/07/04 07:31:49;;;;;;;8.27;7.03;;;;;;;25.26;58.84;99920.16;5050346;28;20055;-61
2021/07/04 07:34:15;;;;;;;8.38;7.28;;;;;;;25.22;57.46;99913.38;5047304;28;20563;-63
2021/07/04 07:36:42;;;;;;;9.73;7.68;;;;;;;25.19;57.05;99916.44;5052283;28;20055;-62
2021/07/04 07:39:08;;;;;;;9.07;7.22;;;;;;;25.21;56.42;99913.56;5040509;28;20416;-60
2021/07/04 07:41:35;;;;;;;9.02;7.40;;;;;;;25.34;55.95;99917.38;5040159;28;20045;-59
2021/07/04 07:44:01;;;;;;;8.93;7.40;;;;;;;25.15;56.13;99917.84;5037696;28;20052;-61
2021/07/04 07:46:28;;;;;;;8.50;6.85;;;;;;;25.07;56.45;99912.44;5033453;28;20053;-61
2021/07/04 07:48:55;;;;;;;8.23;6.85;;;;;;;25.28;58.32;99915.41;5044234;28;20090;-60
2021/07/04 07:51:21;;;;;;;10.02;7.43;;;;;;;25.50;57.53;99913.72;5039357;28;20048;-60
2021/07/04 07:53:49;;;;;;;8.57;7.72;;;;;;;25.47;56.94;99911.38;5036691;28;20052;-63
2021/07/04 07:56:15;;;;;;;8.80;7.32;;;;;;;25.33;56.57;99907.59;5045224;28;20060;-61
2021/07/04 07:58:44;;;;;;;8.43;7.60;;;;;;;25.09;56.74;99902.28;5047897;28;20049;-59
2021/07/04 08:01:14;;;;;;;8.40;7.50;;;;;;;25.07;57.23;99909.75;5034668;28;20045;-59
2021/07/04 08:03:40;;;;;;;9.30;7.80;;;;;;;25.21;56.60;99902.72;5039631;28;20045;-60
2021/07/04 08:06:07;;;;;;;8.50;7.60;;;;;;;25.29;56.39;99897.28;5020791;28;20057;-60
2021/07/04 08:08:33;;;;;;;9.20;7.53;;;;;;;25.31;55.57;99909.63;5026701;28;20048;-60
2021/07/04 08:11:00;;;;;;;9.23;7.35;;;;;;;25.35;55.18;99900.09;5036998;28;20060;-59
2021/07/04 08:13:27;;;;;;;8.65;6.80;;;;;;;25.46;55.67;99904.28;5053468;28;20040;-59
2021/07/04 08:15:53;;;;;;;10.68;6.97;;;;;;;25.63;55.15;99897.75;5056335;28;20305;-58
2021/07/04 08:18:21;;;;;;;7.90;7.10;;;;;;;25.63;53.87;99903.19;5034800;28;20037;-59
2021/07/04 08:20:48;;;;;;;8.35;7.55;;;;;;;25.62;54.44;99904.19;5045317;28;20179;-61
2021/07/04 08:23:16;;;;;;;9.57;7.60;;;;;;;25.43;55.67;99901.91;5045677;28;20048;-60
2021/07/04 08:25:43;;;;;;;7.95;7.07;;;;;;;25.41;55.67;99899.38;5050388;28;20045;-59
2021/07/04 08:28:10;;;;;;;8.23;7.43;;;;;;;25.46;55.81;99897.00;5054104;28;20055;-59
2021/07/04 08:30:37;;;;;;;8.57;7.53;;;;;;;25.55;54.70;99892.34;5025965;28;20144;-60
2021/07/04 08:33:04;;;;;;;8.93;7.93;;;;;;;25.52;54.87;99889.97;5048901;28;20045;-59
2021/07/04 08:35:31;;;;;;;7.95;6.90;;;;;;;25.61;56.16;99885.38;5039704;28;20053;-61
2021/07/04 08:37:58;;;;;;;7.13;6.22;;;;;;;25.85;54.93;99883.31;5042244;28;20055;-59
2021/07/04 08:40:25;;;;;;;10.15;7.93;;;;;;;25.89;53.44;99874.81;5033685;28;20061;-62
2021/07/04 08:42:51;;;;;;;6.70;5.75;;;;;;;25.89;54.75;99874.81;5036278;28;20148;-62
2021/07/04 08:45:18;;;;;;;7.57;6.55;;;;;;;26.00;54.55;99867.06;5037694;28;20150;-62
2021/07/04 08:47:45;;;;;;;7.75;6.90;;;;;;;26.17;54.75;99865.03;5037450;28;20047;-58
2021/07/04 08:50:17;;;;;;;8.48;6.55;;;;;;;26.36;53.46;99861.81;5043061;28;20377;-59
2021/07/04 08:52:44;;;;;;;8.75;6.88;;;;;;;26.39;51.39;99861.47;5034168;28;20053;-60
2021/07/04 08:55:11;;;;;;;8.80;7.65;;;;;;;26.36;52.33;99860.97;5038999;28;20041;-61
2021/07/04 08:57:41;;;;;;;10.55;7.85;;;;;;;26.37;52.18;99863.50;5036847;28;20060;-60
2021/07/04 09:00:14;;;;;;;7.13;6.40;;;;;;;26.26;52.45;99858.53;5043198;28;20049;-60
2021/07/04 09:02:42;;;;;;;8.65;7.57;;;;;;;25.98;52.38;99852.00;5047952;28;20107;-59
2021/07/04 09:05:11;;;;;;;7.95;7.18;;;;;;;26.13;53.79;99853.72;5037709;28;20053;-61
2021/07/04 09:07:39;;;;;;;7.20;6.43;;;;;;;26.36;52.69;99842.81;5040899;28;20074;-60
2021/07/04 09:10:09;;;;;;;7.97;7.15;;;;;;;26.64;52.42;99840.28;5034869;28;21813;-57
2021/07/04 09:12:40;;;;;;;9.20;7.32;;;;;;;26.78;50.90;99823.13;5039791;28;20681;-57
2021/07/04 09:15:17;;;;;;;8.60;7.07;;;;;;;26.82;50.36;99818.16;5047008;28;20768;-58
2021/07/04 09:17:47;;;;;;;8.93;7.57;;;;;;;26.74;51.64;99821.84;5045470;28;20081;-58
2021/07/04 09:20:18;;;;;;;7.30;6.60;;;;;;;26.54;51.57;99818.84;5045229;28;20451;-59
2021/07/04 09:22:56;;;;;;;9.60;7.40;;;;;;;26.35;51.83;99819.41;5043879;28;20504;-56
2021/07/04 09:25:25;;;;;;;8.57;7.10;;;;;;;26.30;52.68;99815.56;5034838;28;20102;-58
2021/07/04 09:28:11;;;;;;;10.90;7.88;;;;;;;26.19;51.85;99812.28;5052889;28;20037;-59
2021/07/04 09:30:41;;;;;;;8.00;7.20;;;;;;;26.15;52.57;99813.66;5043959;28;20081;-57
2021/07/04 09:33:08;;;;;;;;;;;;;;;26.10;53.26;99818.00;5045733;28;20080;-58
2021/07/04 09:35:35;;;;;;;7.90;7.05;;;;;;;26.11;53.21;99812.38;5045414;28;20380;-57
2021/07/04 09:38:12;;;;;;;8.65;7.75;;;;;;;26.18;53.36;99807.03;5050835;28;20112;-58
2021/07/04 09:40:39;;;;;;;9.23;7.57;;;;;;;26.23;52.93;99801.91;5045115;28;20133;-57
2021/07/04 09:43:18;;;;;;;7.90;7.10;;;;;;;26.28;52.44;99801.34;5037217;28;20065;-57
2021/07/04 09:45:58;;;;;;;9.32;7.18;;;;;;;26.35;52.08;99796.88;5053334;28;20053;-57
2021/07/04 09:48:27;;;;;;;9.07;7.75;;;;;;;26.35;51.85;99800.41;5045628;28;20044;-59
2021/07/04 09:50:56;;;;;;;8.85;7.63;;;;;;;26.34;52.28;99795.19;5043131;28;20053;-57
2021/07/04 09:53:32;;;;;;;8.48;7.68;;;;;;;26.30;52.33;99796.56;5037909;28;20049;-60
2021/07/04 09:56:24;;;;;;;10.48;7.38;;;;;;;26.09;52.74;99786.44;5051980;28;20053;-59
2021/07/04 09:58:53;;;;;;;7.82;7.05;;;;;;;25.93;52.42;99778.50;5047979;28;20063;-57
2021/07/04 10:01:45;;;;;;;7.93;7.13;;;;;;;25.95;52.40;99769.13;5043921;28;20048;-58
2021/07/04 10:04:24;;;;;;;9.02;7.60;;;;;;;26.12;51.28;99775.22;5046201;28;20132;-59
2021/07/04 10:06:52;;;;;;;7.53;6.75;;;;;;;26.23;49.91;99773.91;5047645;28;20137;-55
2021/07/04 10:09:20;;;;;;;7.20;6.53;;;;;;;26.33;49.09;99777.19;5043102;28;20049;-57
2021/07/04 10:11:48;;;;;;;8.23;6.80;;;;;;;26.43;49.56;99769.63;5042130;28;20067;-59
2021/07/04 10:14:15;;;;;;;8.88;7.45;;;;;;;26.40;49.63;99770.00;5029416;28;20052;-59
2021/07/04 10:16:43;;;;;;;9.43;7.22;;;;;;;26.35;50.13;99770.56;5030663;28;20057;-58
2021/07/04 10:19:21;;;;;;;7.78;7.03;;;;;;;26.33;50.46;99769.06;5033686;28;20045;-56
2021/07/04 10:21:51;;;;;;;7.93;7.13;;;;;;;26.32;50.44;99764.66;5035362;28;20057;-58
2021/07/04 10:24:18;;;;;;;7.55;6.65;;;;;;;26.32;50.55;99761.94;5038605;28;20037;-57
2021/07/04 10:26:46;;;;;;;8.18;6.95;;;;;;;26.46;50.30;99761.09;5031033;28;20057;-57
2021/07/04 10:29:13;;;;;;;7.75;6.95;;;;;;;26.57;50.23;99752.47;5033200;28;20353;-57
2021/07/04 10:31:40;;;;;;;8.77;7.13;;;;;;;26.61;49.74;99747.47;5036562;28;20139;-58
2021/07/04 10:34:14;;;;;;;7.70;6.70;;;;;;;26.49;50.57;99758.00;5045402;28;20065;-59
2021/07/04 10:37:00;;;;;;;12.05;6.90;;;;;;;26.39;51.07;99747.44;5051156;28;20049;-58
2021/07/04 10:39:34;;;;;;;7.68;6.97;;;;;;;26.36;50.90;99734.25;5047565;28;20501;-56
2021/07/04 10:42:04;;;;;;;8.30;6.68;;;;;;;26.39;51.08;99736.59;5033775;28;20391;-59
2021/07/04 10:44:47;;;;;;;7.80;6.78;;;;;;;26.41;49.65;99726.38;5027557;28;20056;-56
2021/07/04 10:47:20;;;;;;;7.40;6.70;;;;;;;26.58;49.83;99723.44;5046532;28;20152;-56
2021/07/04 10:49:49;;;;;;;7.90;6.93;;;;;;;26.71;49.50;99718.16;5051280;28;20049;-57
2021/07/04 10:52:18;;;;;;;7.07;6.35;;;;;;;26.88;48.92;99709.56;5049859;28;20057;-58
2021/07/04 10:54:54;;;;;;;7.70;7.00;;;;;;;27.02;48.05;99704.28;5054302;28;20053;-56
2021/07/04 10:57:35;;;;;;;7.72;6.35;;;;;;;26.89;48.29;99700.38;5049081;28;20044;-56
2021/07/04 11:00:05;;;;;;;7.18;6.47;;;;;;;27.05;48.72;99695.75;5046729;28;20094;-59
2021/07/04 11:02:54;;;;;;;8.48;6.63;;;;;;;27.15;47.97;99696.25;5045564;28;20049;-57
2021/07/04 11:05:36;;;;;;;7.10;6.40;;;;;;;27.22;47.88;99687.13;5044650;28;20947;-56
2021/07/04 11:08:17;;;;;;;6.80;6.10;;;;;;;27.43;47.18;99691.66;5045189;28;20139;-57
2021/07/04 11:10:50;;;;;;;6.95;6.28;;;;;;;27.69;45.41;99690.22;5045893;28;20112;-55
2021/07/04 11:13:16;;;;;;;8.98;6.22;;;;;;;27.77;43.51;99690.06;5050546;28;20076;-57
2021/07/04 11:15:49;;;;;;;9.10;6.53;;;;;;;27.89;44.86;99680.28;5038671;28;20064;-59
2021/07/04 11:18:19;;;;;;;6.70;6.00;;;;;;;27.94;44.45;99681.38;5044450;28;20712;-59
2021/07/04 11:20:48;;;;;;;6.75;6.05;;;;;;;27.95;43.34;99679.50;5045020;28;20068;-57
2021/07/04 11:23:22;;;;;;;8.90;6.60;;;;;;;27.94;43.93;99678.66;5040990;28;20064;-56
2021/07/04 11:26:06;;;;;;;7.22;6.53;;;;;;;27.91;42.91;99683.66;5034677;28;20059;-55
2021/07/04 11:28:41;;;;;;;6.55;5.88;;;;;;;27.94;42.89;99685.97;5034875;28;20084;-58
2021/07/04 11:31:15;;;;;;;6.97;6.28;;;;;;;27.88;44.72;99687.59;5037717;28;20135;-56
2021/07/04 11:33:56;;;;;;;6.35;5.75;;;;;;;27.83;44.60;99686.53;5044231;28;20041;-56
2021/07/04 11:36:28;;;;;;;7.43;6.05;;;;;;;27.73;44.91;99694.22;5044713;28;20127;-56